This is the latest recevied weather packets stored in our database for station/object WZ9ZZZ-1. If no packets are shown the sender has not sent any weather packets the latest 1 day(s).
| Time | Temp. | Humidity | Pressure | Rain* | Wind** | Luminosity | Snow |
|---|---|---|---|---|---|---|---|
| 1778033113 | 25° C | 90% | 1012.3 hPa | 0 mm | 0.89 m/s, 173° | 0 W/m² | - |
| 1778032810 | 25° C | 90% | 1012.1 hPa | 0 mm | 2.68 m/s, 252° | 0 W/m² | - |
| 1778032507 | 25° C | 90% | 1012.2 hPa | 0 mm | 0.45 m/s, 131° | 0 W/m² | - |
| 1778032204 | 25.56° C | 90% | 1012.2 hPa | 0 mm | 0.45 m/s, 140° | 0 W/m² | - |
| 1778031901 | 25.56° C | 89% | 1012.1 hPa | 0 mm | 0 m/s | 0 W/m² | - |
| 1778031597 | 25.56° C | 89% | 1011.9 hPa | 0 mm | 1.34 m/s, 218° | 0 W/m² | - |
| 1778031295 | 25.56° C | 89% | 1011.9 hPa | 0 mm | 0.45 m/s, 109° | 0 W/m² | - |
| 1778030991 | 25.56° C | 89% | 1011.9 hPa | 0 mm | 1.34 m/s, 264° | 0 W/m² | - |
| 1778030688 | 25.56° C | 88% | 1011.7 hPa | 0 mm | 0.89 m/s, 197° | 0 W/m² | - |
| 1778030385 | 25.56° C | 88% | 1011.6 hPa | 0 mm | 0.45 m/s, 85° | 0 W/m² | - |
| 1778030082 | 25.56° C | 88% | 1011.7 hPa | 0 mm | 2.24 m/s, 231° | 0 W/m² | - |
| 1778029779 | 25.56° C | 88% | 1011.7 hPa | 0 mm | 0.89 m/s, 179° | 0 W/m² | - |
| 1778029478 | 25.56° C | 88% | 1011.5 hPa | 0 mm | 0.89 m/s, 68° | 0 W/m² | - |
| 1778029173 | 25.56° C | 88% | 1011.4 hPa | 0 mm | 2.24 m/s, 232° | 0 W/m² | - |
| 1778028872 | 25.56° C | 88% | 1011.6 hPa | 0 mm | 3.13 m/s, 251° | 0 W/m² | - |
| 1778028566 | 25.56° C | 87% | 1011.4 hPa | 0 mm | 1.79 m/s, 138° | 1 W/m² | - |
| 1778028265 | 25.56° C | 87% | 1011.4 hPa | 0 mm | 1.34 m/s, 273° | 3 W/m² | - |
| 1778027960 | 25.56° C | 87% | 1011.2 hPa | 0 mm | 1.34 m/s, 216° | 5 W/m² | - |
| 1778027657 | 26.11° C | 87% | 1011.3 hPa | 0 mm | 1.34 m/s, 174° | 5 W/m² | - |
| 1778027354 | 26.11° C | 87% | 1011.1 hPa | 0 mm | 0.89 m/s, 179° | 6 W/m² | - |
| 1778027050 | 26.11° C | 86% | 1011.3 hPa | 0 mm | 1.34 m/s, 236° | 10 W/m² | - |
| 1778026745 | 26.11° C | 86% | 1011.1 hPa | 0 mm | 1.34 m/s, 182° | 10 W/m² | - |
| 1778026443 | 26.11° C | 86% | 1011.3 hPa | 0 mm | 1.34 m/s, 190° | 16 W/m² | - |
| 1778026140 | 26.11° C | 86% | 1011.2 hPa | 0 mm | 0.89 m/s, 153° | 18 W/m² | - |
| 1778025837 | 26.11° C | 86% | 1011.4 hPa | 0 mm | 1.34 m/s, 180° | 22 W/m² | - |
* Rain latest hour (hover to see other rain measurements)
** Current wind speed in m/s (hover to see current wind gust speed)